Time;durP1;ratioP1;P1;durP2;ratioP2;P2;SDS_P1;SDS_P2;PMS_P1;PMS_P2;Temp;Humidity;BMP_temperature;BMP_pressure;BME280_temperature;BME280_humidity;BME280_pressure;Samples;Min_cycle;Max_cycle;Signal;HPM_P1;HPM_P2
2023/01/20 03:07:39;;;;;;;29.90;15.15;;;;;;;1.11;93.79;100361.44;4979906;28;20158;-62
2023/01/20 03:14:25;;;;;;;20.02;13.30;;;;;;;1.15;93.25;100363.06;4967283;28;20142;-62
2023/01/20 03:47:39;;;;;;;25.25;14.68;;;;;;;1.22;93.37;100400.94;4974379;28;20045;-64
2023/01/20 04:03:20;;;;;;;24.58;14.15;;;;;;;1.27;92.17;100412.03;4968727;28;20431;-63
2023/01/20 04:53:31;;;;;;;31.38;19.38;;;;;;;0.94;93.84;100458.56;4973953;28;20056;-62
2023/01/20 06:11:52;;;;;;;50.88;26.55;;;;;;;0.88;94.71;100566.72;4960093;28;20182;-62
2023/01/20 06:23:24;;;;;;;41.72;25.00;;;;;;;0.65;96.00;100583.56;4961449;28;20113;-62
2023/01/20 06:34:40;;;;;;;40.80;26.13;;;;;;;0.77;94.96;100595.44;4969688;28;20045;-63
2023/01/20 06:37:07;;;;;;;46.10;25.00;;;;;;;0.78;95.46;100607.50;4973046;28;20065;-62
2023/01/20 06:39:35;;;;;;;45.08;27.00;;;;;;;0.79;95.58;100611.81;4970066;28;20074;-63
2023/01/20 06:42:12;;;;;;;35.80;24.65;;;;;;;0.81;95.49;100614.34;4970519;28;20184;-62
2023/01/20 06:57:28;;;;;;;42.70;26.60;;;;;;;0.95;93.66;100649.50;4978315;28;20214;-64
2023/01/20 06:59:57;;;;;;;46.97;27.23;;;;;;;0.79;93.85;100645.50;4953155;28;20077;-62
2023/01/20 07:02:24;;;;;;;41.13;26.38;;;;;;;0.75;94.12;100654.19;4962760;28;20145;-62
2023/01/20 07:04:52;;;;;;;40.38;26.23;;;;;;;0.74;94.51;100660.28;4965532;28;20074;-62
2023/01/20 07:07:19;;;;;;;36.50;24.52;;;;;;;0.78;94.51;100659.34;4968325;28;20463;-64
2023/01/20 07:09:46;;;;;;;40.72;24.85;;;;;;;0.74;94.33;100668.03;4964737;28;20046;-63
2023/01/20 07:12:14;;;;;;;39.13;24.08;;;;;;;0.72;94.50;100668.09;4971048;28;20558;-62
2023/01/20 07:14:41;;;;;;;41.70;25.27;;;;;;;0.76;94.66;100669.72;4971116;28;20061;-62
2023/01/20 07:17:11;;;;;;;40.65;23.77;;;;;;;0.85;94.13;100681.66;4977171;28;20158;-63
2023/01/20 07:19:38;;;;;;;35.25;24.27;;;;;;;0.83;93.89;100691.19;4965549;28;20062;-62
2023/01/20 07:22:05;;;;;;;41.58;26.10;;;;;;;0.76;93.09;100697.38;4965250;28;20133;-62
2023/01/20 07:24:32;;;;;;;42.47;26.10;;;;;;;0.69;94.07;100696.63;4975933;28;20082;-63
2023/01/20 07:26:59;;;;;;;44.65;24.92;;;;;;;0.67;94.03;100702.72;4973148;28;20550;-63
2023/01/20 07:29:26;;;;;;;37.85;25.25;;;;;;;0.75;94.14;100706.88;4976390;28;20054;-63
2023/01/20 07:31:53;;;;;;;40.78;26.30;;;;;;;0.74;94.13;100700.00;4969954;28;20064;-64
2023/01/20 07:34:21;;;;;;;39.40;24.27;;;;;;;0.73;93.65;100711.25;4971845;28;20521;-64
2023/01/20 07:36:51;;;;;;;43.13;26.70;;;;;;;0.68;94.13;100712.22;4981160;28;20138;-64
2023/01/20 07:40:08;;;;;;;46.47;25.00;;;;;;;0.56;93.72;100713.25;4971569;28;20141;-63
2023/01/20 07:42:38;;;;;;;36.17;24.23;;;;;;;0.63;94.27;100717.47;4960258;28;20126;-63
2023/01/20 07:45:06;;;;;;;47.42;26.88;;;;;;;0.60;93.81;100714.91;4970862;28;20057;-63
2023/01/20 07:47:33;;;;;;;47.90;25.70;;;;;;;0.60;93.86;100719.25;4965791;28;20329;-62
2023/01/20 07:50:00;;;;;;;43.67;23.40;;;;;;;0.62;93.87;100730.44;4965429;28;20429;-63
2023/01/20 07:52:27;;;;;;;42.60;24.88;;;;;;;0.64;94.04;100723.50;4968823;28;20542;-64
2023/01/20 07:54:54;;;;;;;41.47;25.08;;;;;;;0.54;94.43;100728.00;4968898;28;20135;-60
2023/01/20 07:57:21;;;;;;;44.95;24.90;;;;;;;0.48;94.69;100730.66;4963675;28;20058;-62
2023/01/20 07:59:49;;;;;;;46.13;25.98;;;;;;;0.37;95.01;100735.16;4962490;28;20153;-61
2023/01/20 08:02:16;;;;;;;40.65;25.55;;;;;;;0.36;94.70;100733.44;4969964;28;20137;-63
2023/01/20 08:04:43;;;;;;;45.03;24.65;;;;;;;0.44;94.66;100729.84;4973025;28;20055;-61
2023/01/20 08:07:10;;;;;;;40.85;24.98;;;;;;;0.49;94.77;100733.22;4969677;28;20153;-62
2023/01/20 08:09:39;;;;;;;51.72;26.48;;;;;;;0.49;94.92;100735.78;4960453;28;20130;-62
2023/01/20 08:12:07;;;;;;;43.08;25.23;;;;;;;0.54;94.71;100742.63;4967949;28;20233;-62
2023/01/20 08:14:34;;;;;;;42.08;24.58;;;;;;;0.56;94.46;100741.75;4964757;28;20134;-62
2023/01/20 08:17:04;;;;;;;37.97;23.80;;;;;;;0.59;94.69;100746.03;4967465;28;20078;-61
2023/01/20 08:19:31;;;;;;;41.75;24.75;;;;;;;0.61;94.05;100749.44;4973825;28;20145;-62
2023/01/20 08:21:58;;;;;;;36.55;23.70;;;;;;;0.68;93.69;100753.66;4979978;28;20054;-62
2023/01/20 08:24:25;;;;;;;41.08;23.90;;;;;;;0.59;93.83;100748.63;4968143;28;20138;-62
2023/01/20 08:26:52;;;;;;;41.63;24.23;;;;;;;0.62;93.21;100758.94;4977155;28;20134;-64
2023/01/20 08:29:20;;;;;;;45.97;24.08;;;;;;;0.61;93.82;100765.84;4971035;28;20145;-62
2023/01/20 08:31:47;;;;;;;42.55;24.92;;;;;;;0.61;93.81;100763.25;4975619;28;20142;-61
2023/01/20 08:34:15;;;;;;;38.33;22.95;;;;;;;0.66;93.68;100769.22;4971337;28;20078;-62
2023/01/20 08:36:42;;;;;;;37.22;23.67;;;;;;;0.69;93.61;100768.31;4973815;28;20069;-62
2023/01/20 08:39:13;;;;;;;42.80;23.10;;;;;;;0.69;93.38;100769.19;4969818;28;20398;-62
2023/01/20 08:41:42;;;;;;;35.08;19.92;;;;;;;0.67;93.54;100775.25;4969211;28;20479;-62
2023/01/20 08:44:10;;;;;;;34.45;20.20;;;;;;;0.71;92.92;100777.75;4971956;28;20632;-62
2023/01/20 08:46:38;;;;;;;37.00;20.92;;;;;;;0.65;92.83;100779.63;4973826;28;20142;-61
2023/01/20 08:49:15;;;;;;;39.15;21.88;;;;;;;0.55;92.66;100786.69;4972724;28;20082;-62
2023/01/20 08:51:43;;;;;;;46.55;24.55;;;;;;;0.55;93.00;100783.22;4971103;28;20097;-62
2023/01/20 08:54:11;;;;;;;47.85;25.80;;;;;;;0.57;93.26;100786.63;4968442;28;20134;-62
2023/01/20 08:56:38;;;;;;;49.28;26.17;;;;;;;0.61;93.26;100783.97;4970683;28;20463;-62
2023/01/20 08:59:06;;;;;;;47.65;26.83;;;;;;;0.66;93.11;100789.94;4970157;28;20062;-62
2023/01/20 09:01:36;;;;;;;46.13;25.73;;;;;;;0.65;93.44;100792.56;4969764;28;20210;-62
2023/01/20 09:04:04;;;;;;;46.65;25.65;;;;;;;0.61;93.55;100806.44;4969828;28;20480;-62
2023/01/20 09:06:45;;;;;;;40.58;23.50;;;;;;;0.69;93.75;100807.19;4972895;28;20146;-62
2023/01/20 09:09:14;;;;;;;43.67;26.10;;;;;;;0.65;93.50;100805.53;4975897;28;20460;-62
2023/01/20 09:11:43;;;;;;;48.58;27.35;;;;;;;0.71;93.52;100811.44;4973030;28;20101;-62
2023/01/20 09:14:11;;;;;;;47.80;27.58;;;;;;;0.80;93.37;100817.38;4972879;28;20511;-62
2023/01/20 09:16:38;;;;;;;49.10;27.33;;;;;;;0.90;92.78;100822.41;4968224;28;20130;-61
2023/01/20 09:19:05;;;;;;;44.80;27.40;;;;;;;0.92;93.06;100820.63;4972826;28;20054;-62
2023/01/20 09:21:32;;;;;;;44.13;26.98;;;;;;;0.98;92.66;100828.31;4973854;28;20142;-63
2023/01/20 09:24:00;;;;;;;47.08;27.70;;;;;;;0.96;92.18;100837.00;4960768;28;20396;-62
2023/01/20 09:26:27;;;;;;;44.95;26.02;;;;;;;0.99;92.61;100834.34;4962864;28;20047;-62
2023/01/20 09:29:10;;;;;;;47.13;26.63;;;;;;;1.07;92.43;100836.81;4967395;28;20129;-62
2023/01/20 09:31:51;;;;;;;52.95;29.80;;;;;;;1.07;92.34;100847.19;4977001;28;20759;-62
2023/01/20 09:34:23;;;;;;;51.05;28.45;;;;;;;1.09;92.11;100850.63;4960043;28;20078;-62
2023/01/20 09:36:55;;;;;;;46.53;27.27;;;;;;;1.05;91.64;100854.13;4978766;28;20582;-62
2023/01/20 09:45:25;;;;;;;44.38;27.52;;;;;;;1.06;92.28;100869.66;4974877;28;20085;-62
2023/01/20 09:53:59;;;;;;;46.53;26.13;;;;;;;0.96;91.87;100871.56;4911598;29;20796;-63
2023/01/20 09:56:27;;;;;;;45.40;26.95;;;;;;;0.94;92.07;100880.22;4964075;28;20145;-63
2023/01/20 09:58:57;;;;;;;44.25;25.42;;;;;;;0.92;92.00;100877.66;4966690;28;20046;-63
2023/01/20 10:01:29;;;;;;;43.15;25.83;;;;;;;0.98;92.16;100876.69;4980986;28;20146;-63
2023/01/20 10:04:19;;;;;;;41.45;25.88;;;;;;;1.04;91.93;100870.56;4968177;28;20141;-63
2023/01/20 10:06:56;;;;;;;42.55;26.90;;;;;;;1.05;92.15;100872.28;4976555;28;20416;-63
2023/01/20 10:09:44;;;;;;;45.70;24.48;;;;;;;1.01;91.64;100880.09;4979269;28;20158;-63
2023/01/20 10:12:20;;;;;;;45.00;26.02;;;;;;;0.88;92.16;100882.91;4968288;28;20703;-63
2023/01/20 10:15:02;;;;;;;55.08;26.50;;;;;;;0.78;92.28;100889.13;4973936;28;20149;-63
2023/01/20 10:17:35;;;;;;;46.90;26.58;;;;;;;0.71;92.45;100896.97;4977207;28;20138;-63
2023/01/20 10:20:14;;;;;;;44.22;26.00;;;;;;;0.74;92.72;100896.06;4979744;28;20148;-63
2023/01/20 10:22:48;;;;;;;42.05;24.90;;;;;;;0.82;92.96;100894.22;4979007;28;20101;-64
2023/01/20 10:25:20;;;;;;;49.42;27.20;;;;;;;0.92;92.33;100902.72;4951804;28;20073;-63
2023/01/20 10:28:10;;;;;;;44.45;26.13;;;;;;;1.01;92.54;100889.63;4956731;28;20243;-63
2023/01/20 10:31:03;;;;;;;39.50;24.70;;;;;;;1.15;92.24;100884.22;4976968;28;20145;-63
2023/01/20 10:33:36;;;;;;;48.55;25.30;;;;;;;1.25;91.70;100889.22;4975592;28;20043;-62
2023/01/20 10:36:04;;;;;;;48.35;26.98;;;;;;;1.10;91.45;100891.22;4959301;28;20058;-63
2023/01/20 10:38:39;;;;;;;51.78;25.75;;;;;;;1.04;91.56;100883.50;4958186;28;20078;-63
2023/01/20 10:41:14;;;;;;;53.03;27.67;;;;;;;0.91;91.72;100899.28;4975395;28;20149;-64
2023/01/20 10:43:44;;;;;;;42.42;25.40;;;;;;;0.88;92.18;100899.31;4956397;28;20059;-63
2023/01/20 10:46:26;;;;;;;39.97;23.67;;;;;;;0.97;92.64;100898.31;4978109;28;20058;-63
2023/01/20 10:49:20;;;;;;;41.67;24.75;;;;;;;1.00;92.34;100904.31;4974434;28;20491;-63
2023/01/20 10:52:13;;;;;;;48.75;25.25;;;;;;;0.95;92.27;100905.28;4977902;28;20484;-63
2023/01/20 10:55:03;;;;;;;41.60;24.00;;;;;;;1.10;92.29;100904.19;4959847;28;20054;-63
2023/01/20 10:57:31;;;;;;;41.75;24.10;;;;;;;1.14;92.26;100906.69;4972362;28;20082;-63
2023/01/20 11:00:02;;;;;;;45.30;25.33;;;;;;;1.07;91.62;100910.25;4975601;28;20595;-63
2023/01/20 11:02:34;;;;;;;44.65;25.65;;;;;;;1.07;91.74;100912.00;4955030;28;20058;-62
2023/01/20 11:05:08;;;;;;;42.65;24.05;;;;;;;1.12;92.22;100911.03;4978227;28;20671;-63
2023/01/20 11:07:35;;;;;;;44.22;25.33;;;;;;;1.21;92.24;100908.31;4978955;28;20472;-63
2023/01/20 11:10:17;;;;;;;36.50;22.92;;;;;;;1.25;91.88;100912.56;4972826;28;20097;-64
2023/01/20 11:12:48;;;;;;;43.63;25.27;;;;;;;1.33;92.14;100903.81;4972384;28;20051;-63
2023/01/20 11:15:24;;;;;;;38.35;24.67;;;;;;;1.42;91.62;100911.44;4951373;28;20059;-63
2023/01/20 11:18:28;;;;;;;42.20;23.95;;;;;;;1.53;91.41;100917.28;4967818;28;20062;-62
2023/01/20 11:21:22;;;;;;;46.63;26.92;;;;;;;1.52;91.28;100913.00;4953699;28;20498;-63
2023/01/20 11:23:51;;;;;;;48.33;25.83;;;;;;;1.55;91.09;100914.69;4960198;28;20090;-63
2023/01/20 11:26:30;;;;;;;48.92;27.67;;;;;;;1.55;90.77;100919.88;4976226;28;20051;-62
2023/01/20 11:29:00;;;;;;;50.13;26.77;;;;;;;1.55;90.64;100915.53;4975537;28;20081;-62
2023/01/20 11:31:49;;;;;;;49.17;27.73;;;;;;;1.40;89.93;100915.81;4958772;28;20084;-63
2023/01/20 11:34:28;;;;;;;47.78;26.05;;;;;;;1.43;90.34;100920.94;4953980;28;20057;-63
2023/01/20 11:37:03;;;;;;;41.83;26.45;;;;;;;1.44;90.07;100909.66;4975644;28;20117;-63
2023/01/20 11:39:33;;;;;;;46.88;28.35;;;;;;;1.44;90.53;100914.84;4973406;28;20065;-63
2023/01/20 11:42:23;;;;;;;47.60;26.85;;;;;;;1.45;90.42;100909.66;4956883;28;20046;-62
2023/01/20 11:44:54;;;;;;;44.72;26.13;;;;;;;1.42;90.57;100924.41;4974047;28;20059;-62
2023/01/20 11:47:30;;;;;;;44.35;25.55;;;;;;;1.48;90.90;100922.56;4974750;28;20213;-62
2023/01/20 11:50:03;;;;;;;51.17;28.23;;;;;;;1.52;90.14;100931.16;4973811;28;20440;-63
2023/01/20 11:52:38;;;;;;;43.25;27.88;;;;;;;1.57;89.69;100931.06;4980266;28;20149;-64
2023/01/20 11:55:11;;;;;;;47.28;26.73;;;;;;;1.46;89.36;100928.66;4973733;28;20161;-63
2023/01/20 11:57:43;;;;;;;45.13;25.48;;;;;;;1.32;89.72;100928.91;4975836;28;20078;-63
2023/01/20 12:00:19;;;;;;;40.47;25.55;;;;;;;1.31;90.21;100934.97;4957586;28;20543;-63
2023/01/20 12:03:11;;;;;;;42.25;25.80;;;;;;;1.31;90.14;100927.19;4973432;28;20086;-64
2023/01/20 12:05:44;;;;;;;48.08;27.77;;;;;;;1.26;90.35;100934.16;4981358;28;20169;-62
2023/01/20 12:08:23;;;;;;;56.95;27.77;;;;;;;1.28;90.55;100937.59;4973324;28;20680;-63
2023/01/20 12:10:51;;;;;;;44.88;26.42;;;;;;;1.36;90.88;100940.94;4969644;28;20136;-62
2023/01/20 12:13:18;;;;;;;44.10;28.65;;;;;;;1.39;91.12;100943.47;4976593;28;20137;-64
2023/01/20 12:15:53;;;;;;;49.03;28.70;;;;;;;1.40;90.95;100947.78;4971228;28;20133;-63
2023/01/20 12:18:46;;;;;;;50.17;28.77;;;;;;;1.45;90.91;100948.56;4961637;28;20132;-64
2023/01/20 12:21:35;;;;;;;45.72;27.83;;;;;;;1.50;90.93;100944.16;4959705;28;20074;-62
2023/01/20 12:24:02;;;;;;;46.58;26.88;;;;;;;1.54;90.88;100949.31;4957192;28;20530;-64
2023/01/20 12:26:33;;;;;;;45.55;26.92;;;;;;;1.56;90.94;100955.31;4977565;28;20078;-65
2023/01/20 12:29:12;;;;;;;42.80;26.40;;;;;;;1.64;90.88;100959.50;4951900;28;20409;-62
2023/01/20 12:31:39;;;;;;;49.42;27.13;;;;;;;1.68;89.27;100973.28;4978836;28;20058;-61
2023/01/20 12:34:20;;;;;;;48.13;28.58;;;;;;;1.60;88.80;100969.94;4972939;28;20567;-61
2023/01/20 12:37:02;;;;;;;40.55;26.40;;;;;;;1.54;89.35;100975.25;4960835;28;20154;-63
2023/01/20 12:39:50;;;;;;;47.67;28.08;;;;;;;1.54;89.63;100989.09;4975908;28;20054;-63
2023/01/20 12:42:29;;;;;;;44.10;25.05;;;;;;;1.56;89.92;100989.03;4975344;28;20067;-62
2023/01/20 12:45:21;;;;;;;52.40;28.08;;;;;;;1.54;90.02;100993.41;4970998;28;20072;-63
2023/01/20 12:48:00;;;;;;;44.65;27.45;;;;;;;1.54;89.87;100994.28;4973899;28;20155;-62
2023/01/20 12:50:43;;;;;;;52.33;27.55;;;;;;;1.55;90.23;100997.72;4974012;28;20133;-62
2023/01/20 12:53:19;;;;;;;49.63;26.52;;;;;;;1.54;90.13;100996.88;4967759;28;20473;-62
2023/01/20 12:55:55;;;;;;;42.20;26.13;;;;;;;1.57;90.25;101001.97;4977960;28;20112;-62
2023/01/20 12:58:47;;;;;;;44.63;26.20;;;;;;;1.65;90.38;101004.47;4969165;28;20120;-64
2023/01/20 13:01:42;;;;;;;42.25;27.10;;;;;;;1.74;90.30;101010.34;4970409;28;20073;-63
2023/01/20 13:04:41;;;;;;;43.78;26.17;;;;;;;1.77;90.24;101012.91;4976328;28;20053;-64
2023/01/20 13:07:38;;;;;;;45.00;26.23;;;;;;;1.91;90.40;101014.41;4956394;28;20138;-61
2023/01/20 13:10:24;;;;;;;43.40;24.60;;;;;;;2.01;90.00;101016.81;4966012;28;20083;-63
2023/01/20 13:13:44;;;;;;;47.43;27.67;;;;;;;2.11;89.76;101014.91;4972380;28;20475;-63
2023/01/20 13:16:53;;;;;;;49.38;27.20;;;;;;;2.24;89.57;101025.94;4965366;28;20063;-62
2023/01/20 13:19:32;;;;;;;49.55;28.17;;;;;;;2.27;88.71;101031.94;4973774;28;20133;-63
2023/01/20 13:22:20;;;;;;;45.83;28.75;;;;;;;2.24;88.65;101024.19;4949720;28;20227;-63
2023/01/20 13:24:52;;;;;;;51.05;28.63;;;;;;;2.26;88.44;101029.38;4985823;28;20056;-63
2023/01/20 13:27:26;;;;;;;44.85;27.27;;;;;;;2.24;88.37;101034.59;4976927;28;20133;-63
2023/01/20 13:29:56;;;;;;;45.85;28.88;;;;;;;2.22;88.63;101028.59;4981505;28;20137;-62
2023/01/20 13:32:30;;;;;;;44.47;27.17;;;;;;;2.24;88.76;101031.13;4979040;28;20063;-63
2023/01/20 13:34:59;;;;;;;40.90;27.42;;;;;;;2.27;88.70;101033.69;4979280;28;20055;-63
2023/01/20 13:41:49;;;;;;;47.85;28.30;;;;;;;2.36;88.46;101030.06;4968949;28;20105;-63
2023/01/20 13:44:35;;;;;;;42.25;27.55;;;;;;;2.42;88.61;101043.78;4986373;28;20046;-60
2023/01/20 13:51:21;;;;;;;45.10;27.55;;;;;;;2.32;86.32;101046.59;4973130;28;20537;-63
2023/01/20 13:58:20;;;;;;;41.42;27.63;;;;;;;2.36;88.34;101046.50;4977622;28;20414;-64
2023/01/20 14:09:18;;;;;;;44.95;28.05;;;;;;;2.40;88.18;101049.91;4905266;29;20063;-61
2023/01/20 14:16:23;;;;;;;44.25;27.40;;;;;;;2.39;87.17;101063.81;4907777;29;20134;-63
2023/01/20 14:23:52;;;;;;;48.10;26.55;;;;;;;2.39;88.80;101062.06;4911335;29;20185;-63
2023/01/20 14:35:34;;;;;;;52.55;29.85;;;;;;;2.49;88.52;101089.59;4972107;28;20041;-63
2023/01/20 14:50:52;;;;;;;49.33;28.67;;;;;;;2.28;86.82;101111.59;4983219;28;20124;-63
2023/01/20 15:40:39;;;;;;;45.70;30.40;;;;;;;2.20;89.98;101177.53;4964394;28;20057;-64
2023/01/20 15:47:49;;;;;;;48.60;28.88;;;;;;;2.22;90.16;101191.38;4964274;28;20133;-64
2023/01/20 16:07:34;;;;;;;51.75;30.85;;;;;;;1.82;90.43;101237.81;4955984;28;20076;-63
2023/01/20 16:23:28;;;;;;;52.05;30.15;;;;;;;1.95;89.82;101263.59;4973003;28;20822;-63
2023/01/20 16:43:02;;;;;;;45.92;30.00;;;;;;;1.74;90.14;101279.44;4964851;28;20108;-64
2023/01/20 16:54:14;;;;;;;51.22;29.15;;;;;;;1.80;89.84;101296.69;4963594;28;20127;-64
2023/01/20 17:09:39;;;;;;;50.35;28.58;;;;;;;1.81;88.92;101322.63;4972016;28;20218;-63
2023/01/20 18:01:31;;;;;;;46.17;28.30;;;;;;;1.52;89.71;101380.03;4979572;28;20065;-62
2023/01/20 18:12:49;;;;;;;47.60;28.48;;;;;;;1.56;88.97;101393.84;4978391;28;20209;-63
2023/01/20 18:23:48;;;;;;;49.10;28.52;;;;;;;1.54;89.31;101409.44;4978414;28;20098;-65
2023/01/20 18:26:17;;;;;;;46.22;27.60;;;;;;;1.50;89.02;101416.38;4977048;28;20067;-66
2023/01/20 18:28:47;;;;;;;39.72;26.60;;;;;;;1.48;89.70;101415.53;4975625;28;20081;-65
2023/01/20 18:31:18;;;;;;;47.05;27.60;;;;;;;1.53;89.75;101423.25;4978741;28;20471;-65
2023/01/20 18:33:51;;;;;;;44.42;26.73;;;;;;;1.60;89.90;101422.34;4975941;28;20141;-64
2023/01/20 18:36:27;;;;;;;45.03;27.60;;;;;;;1.66;89.58;101416.22;4980178;28;20200;-65
2023/01/20 18:39:20;;;;;;;47.22;28.27;;;;;;;1.69;89.24;101426.59;4974453;28;20146;-62
2023/01/20 18:59:22;;;;;;;40.65;26.13;;;;;;;1.37;89.06;101445.03;4974170;28;20166;-65
2023/01/20 19:02:18;;;;;;;;;;;;;;;1.21;88.69;101447.72;4964150;28;20133;-64
2023/01/20 19:04:45;;;;;;;41.78;24.05;;;;;;;1.17;89.45;101455.53;4971377;28;20361;-64
2023/01/20 20:01:21;;;;;;;45.03;24.30;;;;;;;1.05;89.46;101516.16;4975053;28;20223;-64
2023/01/20 20:21:22;;;;;;;37.78;23.17;;;;;;;0.93;89.82;101526.56;4971133;28;20125;-60
2023/01/20 20:23:51;;;;;;;35.03;22.48;;;;;;;0.95;90.01;101538.66;4956347;28;20498;-66
2023/01/20 20:44:00;;;;;;;32.20;19.88;;;;;;;0.85;89.37;101560.28;4960872;28;20057;-64
2023/01/20 20:46:28;;;;;;;33.20;20.02;;;;;;;0.82;89.43;101564.66;4968199;28;20520;-66
2023/01/20 20:57:46;;;;;;;35.10;21.33;;;;;;;0.61;89.31;101575.94;4946724;28;20130;-66
2023/01/20 21:00:26;;;;;;;37.92;20.23;;;;;;;0.67;89.94;101575.91;4958010;28;20149;-65
2023/01/20 21:07:38;;;;;;;28.60;18.20;;;;;;;0.64;89.88;101588.91;4982237;28;20589;-64
2023/01/20 21:14:24;;;;;;;27.98;17.65;;;;;;;0.75;89.74;101592.31;4978650;28;20584;-64
2023/01/20 21:16:51;;;;;;;29.80;18.52;;;;;;;0.75;89.77;101587.13;4969207;28;20521;-63
2023/01/20 21:19:18;;;;;;;27.63;16.92;;;;;;;0.72;89.25;101589.72;4962124;28;20066;-64
2023/01/20 21:26:11;;;;;;;32.28;17.35;;;;;;;0.58;89.63;101599.25;4954020;28;20089;-63
2023/01/20 21:32:58;;;;;;;27.50;16.40;;;;;;;0.58;89.12;101601.84;4967633;28;20189;-63
2023/01/20 21:35:25;;;;;;;27.73;16.35;;;;;;;0.56;89.67;101606.19;4953184;28;20133;-64
2023/01/20 21:37:52;;;;;;;23.77;15.65;;;;;;;0.61;89.71;101617.41;4971948;28;20145;-63
2023/01/20 21:40:19;;;;;;;22.63;14.43;;;;;;;0.64;89.33;101613.06;4972996;28;20077;-63
2023/01/20 21:42:48;;;;;;;24.02;15.20;;;;;;;0.62;88.66;101613.94;4972727;28;20208;-62
2023/01/20 21:45:15;;;;;;;26.70;15.73;;;;;;;0.61;88.86;101620.00;4973882;28;20141;-63
2023/01/20 21:47:43;;;;;;;22.45;14.52;;;;;;;0.65;89.47;101627.75;4982038;28;20146;-63
2023/01/20 21:54:34;;;;;;;17.38;12.55;;;;;;;0.61;89.15;101644.16;4975910;28;20050;-65
2023/01/20 21:57:01;;;;;;;22.33;13.55;;;;;;;0.65;88.89;101637.25;4985394;28;20112;-63
2023/01/20 23:48:38;;;;;;;23.52;13.70;;;;;;;-0.07;90.23;101714.94;4987384;28;20041;-54
